Time;durP1;ratioP1;P1;durP2;ratioP2;P2;SDS_P1;SDS_P2;PMS_P1;PMS_P2;Temp;Humidity;BMP_temperature;BMP_pressure;BME280_temperature;BME280_humidity;BME280_pressure;Samples;Min_cycle;Max_cycle;Signal;HPM_P1;HPM_P2
2022/03/25 00:01:30;;;;;;;36.67;24.42;;;;;;;;;;5055763;28;20029;-68
2022/03/25 00:03:57;;;;;;;36.63;25.33;;;;;;;;;;5055682;28;20029;-68
2022/03/25 00:06:23;;;;;;;47.38;28.20;;;333.10;1152.00;;;;;;5056034;28;20029;-67
2022/03/25 00:08:49;;;;;;;59.75;35.13;;;;;;;;;;5055868;28;20029;-68
2022/03/25 00:11:15;;;;;;;69.47;39.13;;;;;;;;;;5055464;28;20029;-68
2022/03/25 00:13:41;;;;;;;57.22;34.95;;;;;;;;;;5055403;28;20025;-68
2022/03/25 00:16:08;;;;;;;60.42;35.88;;;;;;;;;;5055573;28;20130;-67
2022/03/25 00:18:34;;;;;;;68.20;40.08;;;;;;;;;;5055457;28;20056;-68
2022/03/25 00:21:00;;;;;;;79.72;44.17;;;358.40;1100.80;;;;;;5055288;28;20032;-67
2022/03/25 00:23:26;;;;;;;85.00;47.58;;;358.40;1100.80;;;;;;5055465;28;20024;-67
2022/03/25 00:25:52;;;;;;;61.95;34.95;;;;;;;;;;5055102;28;20120;-67
2022/03/25 00:28:20;;;;;;;55.88;31.52;;;333.70;1100.80;;;;;;5055040;28;20075;-67
2022/03/25 00:30:46;;;;;;;44.33;26.42;;;333.70;1100.80;;;;;;5055218;28;20013;-67
2022/03/25 00:33:15;;;;;;;37.70;24.25;;;;;;;;;;5055133;28;20029;-68
2022/03/25 00:35:41;;;;;;;37.70;25.58;;;;;;;;;;5055089;28;20155;-68
2022/03/25 00:38:07;;;;;;;31.48;22.40;;;333.10;1152.00;;;;;;5055222;28;20048;-68
2022/03/25 00:40:33;;;;;;;33.25;21.98;;;333.10;1152.00;;;;;;5055596;28;20361;-67
2022/03/25 00:42:59;;;;;;;29.38;19.88;;;333.20;1152.00;;;;;;5054772;28;20364;-67
2022/03/25 00:45:25;;;;;;;29.02;19.80;;;333.10;1152.00;;;;;;5054847;28;20032;-67
2022/03/25 00:47:51;;;;;;;31.85;20.77;;;;;;;;;;5054840;28;20163;-67
2022/03/25 00:50:19;;;;;;;26.45;19.52;;;;;;;;;;5054893;28;20495;-68
2022/03/25 00:52:46;;;;;;;28.35;18.42;;;;;;;;;;5054857;28;20559;-68
2022/03/25 00:55:11;;;;;;;33.10;19.55;;;332.80;1305.60;;;;;;5054767;28;20040;-67
2022/03/25 00:57:37;;;;;;;33.53;20.42;;;332.80;1177.60;;;;;;5054531;28;20025;-67
2022/03/25 01:00:05;;;;;;;27.33;18.77;;;332.80;1177.60;;;;;;5054839;28;20020;-67
2022/03/25 01:02:30;;;;;;;29.25;17.52;;;332.80;1177.60;;;;;;5054019;28;20502;-67
2022/03/25 01:04:56;;;;;;;27.20;18.42;;;332.90;1152.00;;;;;;5054725;28;20029;-67
2022/03/25 01:07:22;;;;;;;25.55;17.67;;;;;;;;;;5054800;28;20032;-67
2022/03/25 01:09:48;;;;;;;22.02;16.35;;;;;;;;;;5054569;28;20076;-68
2022/03/25 01:12:14;;;;;;;22.45;15.25;;;307.90;1152.00;;;;;;5054202;28;20032;-67
2022/03/25 01:14:40;;;;;;;18.95;14.55;;;307.80;1152.00;;;;;;5054285;28;20033;-67
2022/03/25 01:17:06;;;;;;;26.65;17.00;;;307.70;1152.00;;;;;;5054471;28;20031;-67
2022/03/25 01:19:32;;;;;;;33.47;18.88;;;307.70;1152.00;;;;;;5054567;28;20039;-67
2022/03/25 01:21:58;;;;;;;26.77;18.23;;;307.60;1203.20;;;;;;5054435;28;20021;-67
2022/03/25 01:24:24;;;;;;;28.98;17.15;;;307.50;1203.20;;;;;;5054302;28;20071;-68
2022/03/25 01:26:50;;;;;;;24.60;17.55;;;;;;;;;;5053851;28;20045;-68
2022/03/25 01:29:16;;;;;;;24.40;17.20;;;307.70;1203.20;;;;;;5054096;28;20032;-68
2022/03/25 01:31:42;;;;;;;24.95;17.92;;;308.10;1203.20;;;;;;5054160;28;20071;-67
2022/03/25 01:34:08;;;;;;;34.95;23.17;;;;;;;;;;5054141;28;20054;-67
2022/03/25 01:36:34;;;;;;;40.10;26.20;;;;;;;;;;5054053;28;20403;-68
2022/03/25 01:39:02;;;;;;;28.25;18.85;;;;;;;;;;5035825;28;20083;-68
2022/03/25 01:41:28;;;;;;;52.05;31.65;;;;;;;;;;5053845;28;20495;-68
2022/03/25 01:43:55;;;;;;;33.60;21.40;;;;;;;;;;5053675;28;20414;-67
2022/03/25 01:46:22;;;;;;;35.33;22.63;;;;;;;;;;5053953;28;20506;-68
2022/03/25 01:48:49;;;;;;;37.55;23.90;;;;;;;;;;5054100;28;20029;-68
2022/03/25 01:51:20;;;;;;;36.05;22.90;;;;;;;;;;5053748;28;20028;-67
2022/03/25 01:53:49;;;;;;;44.30;27.65;;;;;;;;;;5054121;28;20021;-67
2022/03/25 01:56:21;;;;;;;32.30;21.10;;;;;;;;;;5053503;28;20490;-67
2022/03/25 01:58:48;;;;;;;30.17;19.80;;;;;;;;;;5053646;28;20095;-67
2022/03/25 02:01:14;;;;;;;35.35;21.15;;;;;;;;;;5053585;28;20032;-67
2022/03/25 02:03:40;;;;;;;27.85;18.75;;;307.80;1177.60;;;;;;5053587;28;20025;-67
2022/03/25 02:06:06;;;;;;;53.45;31.30;;;307.90;1177.60;;;;;;5053580;28;20025;-67
2022/03/25 02:08:32;;;;;;;35.03;21.45;;;;;;;;;;5053692;28;20387;-67
2022/03/25 02:10:59;;;;;;;57.47;31.77;;;;;;;;;;5053454;28;20100;-67
2022/03/25 02:13:25;;;;;;;53.45;31.77;;;;;;;;;;5053379;28;20029;-68
2022/03/25 02:15:52;;;;;;;38.83;24.05;;;;;;;;;;5035633;28;20041;-68
2022/03/25 02:18:18;;;;;;;47.55;28.00;;;;;;;;;;5053343;28;20029;-68
2022/03/25 02:20:45;;;;;;;44.60;27.48;;;;;;;;;;5053189;28;20028;-68
2022/03/25 02:23:12;;;;;;;38.00;25.10;;;;;;;;;;5053226;28;20032;-68
2022/03/25 02:25:38;;;;;;;30.92;20.67;;;307.80;1177.60;;;;;;5053090;28;20051;-68
2022/03/25 02:28:04;;;;;;;25.05;18.75;;;307.70;1177.60;;;;;;5053072;28;20476;-68
2022/03/25 02:30:31;;;;;;;34.47;20.92;;;;;;;;;;5035130;28;20401;-68
2022/03/25 02:33:00;;;;;;;34.35;21.77;;;;;;;;;;5035297;28;20033;-68
2022/03/25 02:35:44;;;;;;;26.38;17.67;;;;;;;;;;5053215;28;20380;-68
2022/03/25 02:38:11;;;;;;;28.65;18.27;;;;;;;;;;5052875;28;20073;-68
2022/03/25 02:40:38;;;;;;;23.95;17.27;;;;;;;;;;5052843;28;20063;-68
2022/03/25 02:43:05;;;;;;;23.77;17.33;;;;;;;;;;5052976;28;20059;-68
2022/03/25 02:45:31;;;;;;;28.77;19.77;;;307.20;1203.20;;;;;;5052840;28;20399;-68
2022/03/25 02:47:57;;;;;;;25.48;18.17;;;;;;;;;;5053114;28;20116;-68
2022/03/25 02:50:25;;;;;;;22.48;17.05;;;;;;;;;;5052876;28;20032;-68
2022/03/25 02:52:50;;;;;;;23.92;16.15;;;307.40;1177.60;;;;;;5052957;28;20082;-68
2022/03/25 02:55:16;;;;;;;22.77;16.77;;;307.60;1177.60;;;;;;5034787;28;20513;-68
2022/03/25 02:57:42;;;;;;;34.60;24.35;;;307.60;1177.60;;;;;;5052584;28;20032;-68
2022/03/25 03:00:10;;;;;;;27.23;18.15;;;307.80;1177.60;;;;;;5052712;28;20475;-68
2022/03/25 03:02:39;;;;;;;25.80;16.50;;;;;;;;;;5052779;28;20029;-68
2022/03/25 03:05:09;;;;;;;23.60;17.13;;;307.50;1177.60;;;;;;5052749;28;20490;-68
2022/03/25 03:07:35;;;;;;;26.85;18.88;;;307.50;1177.60;;;;;;5052644;28;20028;-68
2022/03/25 03:10:04;;;;;;;31.42;22.58;;;307.80;1664.00;;;;;;5052486;28;20375;-68
2022/03/25 03:12:30;;;;;;;50.70;33.55;;;307.80;1177.60;;;;;;5052644;28;20021;-68
2022/03/25 03:14:57;;;;;;;38.30;28.05;;;307.80;1152.00;;;;;;5052378;28;20037;-67
2022/03/25 03:17:23;;;;;;;35.53;21.17;;;;;;;;;;5052501;28;20166;-68
2022/03/25 03:19:50;;;;;;;26.45;19.42;;;;;;;;;;5052559;28;20027;-68
2022/03/25 03:22:17;;;;;;;27.05;18.13;;;;;;;;;;5052605;28;20510;-68
2022/03/25 03:24:43;;;;;;;23.17;16.17;;;;;;;;;;5052708;28;20051;-68
2022/03/25 03:27:10;;;;;;;25.25;15.43;;;;;;;;;;5056303;28;20051;-68
2022/03/25 03:29:36;;;;;;;24.77;15.40;;;;;;;;;;5056380;28;20090;-68
2022/03/25 03:32:03;;;;;;;28.80;20.85;;;;;;;;;;5056508;28;20099;-68
2022/03/25 03:34:30;;;;;;;32.67;22.23;;;;;;;;;;5056414;28;20079;-68
2022/03/25 03:36:55;;;;;;;31.42;19.85;;;307.70;1203.20;;;;;;5056205;28;20112;-68
2022/03/25 03:39:21;;;;;;;28.42;17.98;;;;;;;;;;5056195;28;20052;-68
2022/03/25 03:41:47;;;;;;;36.53;21.13;;;;;;;;;;5056155;28;20029;-68
2022/03/25 03:44:13;;;;;;;29.25;20.10;;;307.40;1228.80;;;;;;5056131;28;20056;-68
2022/03/25 03:46:40;;;;;;;31.55;22.23;;;;;;;;;;5056488;28;20060;-68
2022/03/25 03:49:06;;;;;;;46.17;24.33;;;;;;;;;;5056193;28;20025;-68
2022/03/25 03:51:31;;;;;;;34.80;21.33;;;282.50;1203.20;;;;;;5037936;28;20052;-68
2022/03/25 03:53:58;;;;;;;31.83;21.65;;;282.40;1228.80;;;;;;5055778;28;20491;-68
2022/03/25 03:56:24;;;;;;;31.20;23.33;;;;;;;;;;5055976;28;20468;-68
2022/03/25 03:58:50;;;;;;;39.03;26.67;;;;;;;;;;5055762;28;20036;-68
2022/03/25 04:01:16;;;;;;;41.95;23.08;;;;;;;;;;5055877;28;20480;-67
2022/03/25 04:03:42;;;;;;;36.90;21.27;;;;;;;;;;5055846;28;20032;-68
2022/03/25 04:06:09;;;;;;;34.00;22.15;;;;;;;;;;5055663;28;20502;-67
2022/03/25 04:08:35;;;;;;;47.08;33.72;;;;;;;;;;5055782;28;20438;-68
2022/03/25 04:11:02;;;;;;;43.42;26.42;;;;;;;;;;5055621;28;20048;-68
2022/03/25 04:13:28;;;;;;;49.50;26.92;;;;;;;;;;5055607;28;20021;-68
2022/03/25 04:15:54;;;;;;;45.60;25.67;;;;;;;;;;5055436;28;20044;-68
2022/03/25 04:18:22;;;;;;;43.95;25.88;;;;;;;;;;5055451;28;20087;-68
2022/03/25 04:20:49;;;;;;;44.88;25.17;;;;;;;;;;5038186;28;20025;-68
2022/03/25 04:23:16;;;;;;;54.75;31.58;;;;;;;;;;5055435;28;20013;-68
2022/03/25 04:25:41;;;;;;;41.85;30.40;;;282.40;1254.40;;;;;;5055086;28;20052;-68
2022/03/25 04:28:08;;;;;;;46.90;20.95;;;;;;;;;;5055277;28;20021;-68
2022/03/25 04:30:36;;;;;;;43.53;20.52;;;282.10;1254.40;;;;;;5055369;28;20029;-67
2022/03/25 04:33:02;;;;;;;35.42;17.90;;;282.00;1254.40;;;;;;5055287;28;20067;-67
2022/03/25 04:35:28;;;;;;;29.55;17.23;;;;;;;;;;5055159;28;20164;-67
2022/03/25 04:37:55;;;;;;;34.13;19.45;;;;;;;;;;5053819;28;20013;-67
2022/03/25 04:40:22;;;;;;;34.20;22.27;;;281.60;1305.60;;;;;;5054952;28;20027;-67
2022/03/25 04:42:49;;;;;;;34.55;22.13;;;281.80;1305.60;;;;;;5055133;28;20032;-67
2022/03/25 04:45:15;;;;;;;28.17;20.77;;;281.90;1280.00;;;;;;5055014;28;20025;-67
2022/03/25 04:47:42;;;;;;;33.17;21.77;;;;;;;;;;5055019;28;20033;-67
2022/03/25 04:50:08;;;;;;;38.63;22.58;;;;;;;;;;5054993;28;20518;-68
2022/03/25 04:52:34;;;;;;;32.33;21.33;;;;;;;;;;5054938;28;20021;-67
2022/03/25 04:55:00;;;;;;;30.77;21.35;;;;;;;;;;5054643;28;20491;-68
2022/03/25 04:57:27;;;;;;;38.97;25.95;;;;;;;;;;5054955;28;20437;-68
2022/03/25 04:59:52;;;;;;;35.10;25.35;;;281.90;1280.00;;;;;;5054639;28;20044;-67
2022/03/25 05:02:18;;;;;;;39.17;21.13;;;281.90;1280.00;;;;;;5054801;28;20467;-68
2022/03/25 05:04:44;;;;;;;38.33;22.92;;;281.70;1305.60;;;;;;5054727;28;20094;-67
2022/03/25 05:07:14;;;;;;;39.60;26.52;;;;;;;;;;5054611;28;20029;-67
2022/03/25 05:09:40;;;;;;;58.15;27.08;;;;;;;;;;5054356;28;20162;-67
2022/03/25 05:12:06;;;;;;;38.58;23.45;;;;;;;;;;5054534;28;20444;-67
2022/03/25 05:14:34;;;;;;;51.58;29.13;;;256.80;1305.60;;;;;;5054349;28;20025;-68
2022/03/25 05:17:00;;;;;;;43.38;28.85;;;;;;;;;;5054926;28;20403;-68
2022/03/25 05:19:26;;;;;;;35.95;26.73;;;;;;;;;;5054299;28;20476;-68
2022/03/25 05:21:52;;;;;;;42.65;27.98;;;;;;;;;;5054163;28;20021;-68
2022/03/25 05:24:18;;;;;;;61.92;30.20;;;;;;;;;;5054155;28;20029;-68
2022/03/25 05:26:44;;;;;;;53.60;31.35;;;;;;;;;;5054373;28;20052;-68
2022/03/25 05:29:10;;;;;;;77.53;50.08;;;;;;;;;;5054098;28;20033;-68
2022/03/25 05:31:37;;;;;;;107.00;80.53;;;;;;;;;;5054077;28;20090;-67
2022/03/25 05:34:04;;;;;;;60.63;37.42;;;;;;;;;;5054023;28;20407;-68
2022/03/25 05:36:31;;;;;;;107.88;73.57;;;;;;;;;;5053956;28;20048;-68
2022/03/25 05:38:58;;;;;;;62.30;38.00;;;;;;;;;;5053661;28;20375;-67
2022/03/25 05:41:24;;;;;;;62.83;34.13;;;;;;;;;;5035864;28;20108;-68
2022/03/25 05:43:51;;;;;;;61.03;36.47;;;282.00;1305.60;;;;;;5053900;28;20035;-68
2022/03/25 05:46:17;;;;;;;51.70;31.67;;;282.00;1484.80;;;;;;5054156;28;20063;-67
2022/03/25 05:48:44;;;;;;;41.10;27.33;;;;;;;;;;5053630;28;20380;-68
2022/03/25 05:51:10;;;;;;;54.67;29.45;;;;;;;;;;5053593;28;20499;-67
2022/03/25 05:53:36;;;;;;;51.38;30.48;;;;;;;;;;5053474;28;20025;-67
2022/03/25 05:56:04;;;;;;;45.70;29.15;;;;;;;;;;5053490;28;20037;-67
2022/03/25 05:58:36;;;;;;;47.25;27.98;;;;;;;;;;5053544;28;20491;-67
2022/03/25 06:01:03;;;;;;;59.20;37.25;;;;;;;;;;5053621;28;20495;-68
2022/03/25 06:03:31;;;;;;;46.70;28.30;;;;;;;;;;5053556;28;20025;-68
2022/03/25 06:05:57;;;;;;;44.00;29.88;;;;;;;;;;5053680;28;20531;-67
2022/03/25 06:08:23;;;;;;;54.60;36.13;;;;;;;;;;5053314;28;20025;-67
2022/03/25 06:10:50;;;;;;;53.30;34.05;;;;;;;;;;5053441;28;20105;-68
2022/03/25 06:13:16;;;;;;;55.65;30.70;;;;;;;;;;5053146;28;20017;-67
2022/03/25 06:15:42;;;;;;;41.42;27.13;;;;;;;;;;5053024;28;20037;-67
2022/03/25 06:18:08;;;;;;;42.53;28.95;;;;;;;;;;5053197;28;20025;-67
2022/03/25 06:20:35;;;;;;;45.50;27.27;;;;;;;;;;5053657;28;20029;-68
2022/03/25 06:23:01;;;;;;;54.45;29.55;;;;;;;;;;5053143;28;20032;-68
2022/03/25 06:25:27;;;;;;;44.15;26.10;;;;;;;;;;5053167;28;20041;-69
2022/03/25 06:27:53;;;;;;;49.17;29.08;;;;;;;;;;5053009;28;20029;-68
2022/03/25 06:30:20;;;;;;;39.30;26.08;;;;;;;;;;5052842;28;20040;-68
2022/03/25 06:32:47;;;;;;;60.72;37.90;;;;;;;;;;5052798;28;20070;-68
2022/03/25 06:35:13;;;;;;;60.08;42.53;;;;;;;;;;5052812;28;20510;-68
2022/03/25 06:37:39;;;;;;;62.25;44.45;;;;;;;;;;5034954;28;20433;-68
2022/03/25 06:40:07;;;;;;;47.10;31.40;;;;;;;;;;5052724;28;20561;-68
2022/03/25 06:42:37;;;;;;;52.97;30.90;;;;;;;;;;5052657;28;20021;-68
2022/03/25 06:45:04;;;;;;;61.70;38.47;;;;;;;;;;5052480;28;20479;-68
2022/03/25 06:47:30;;;;;;;55.33;33.95;;;;;;;;;;5052648;28;20079;-68
2022/03/25 06:49:56;;;;;;;50.15;29.95;;;;;;;;;;5052546;28;20056;-68
2022/03/25 06:52:23;;;;;;;53.15;30.63;;;;;;;;;;5052530;28;20028;-67
2022/03/25 06:54:49;;;;;;;49.80;30.63;;;;;;;;;;5052757;28;20395;-67
2022/03/25 06:57:15;;;;;;;32.95;21.83;;;;;;;;;;5052568;28;20021;-68
2022/03/25 06:59:42;;;;;;;34.90;21.33;;;;;;;;;;5051681;28;20433;-68
2022/03/25 07:02:09;;;;;;;45.95;27.00;;;;;;;;;;5052762;28;20365;-68
2022/03/25 07:04:35;;;;;;;40.40;27.48;;;;;;;;;;5052537;28;20017;-68
2022/03/25 07:07:03;;;;;;;31.98;20.45;;;;;;;;;;5052534;28;20071;-67
2022/03/25 07:09:29;;;;;;;37.60;23.35;;;;;;;;;;5052689;28;20399;-67
2022/03/25 07:11:56;;;;;;;25.08;19.88;;;;;;;;;;5052464;28;20044;-67
2022/03/25 07:14:22;;;;;;;30.58;17.73;;;;;;;;;;5052221;28;20029;-68
2022/03/25 07:16:48;;;;;;;33.03;19.77;;;;;;;;;;5052755;28;20033;-68
2022/03/25 07:19:14;;;;;;;29.52;18.95;;;;;;;;;;5052314;28;20056;-68
2022/03/25 07:21:40;;;;;;;29.48;19.55;;;;;;;;;;5052354;28;20032;-68
2022/03/25 07:24:07;;;;;;;23.10;13.15;;;;;;;;;;5052165;28;20049;-68
2022/03/25 07:26:33;;;;;;;18.52;11.55;;;;;;;;;;5052402;28;20495;-68
2022/03/25 07:28:59;;;;;;;27.58;14.48;;;;;;;;;;5052300;28;20037;-68
2022/03/25 07:31:28;;;;;;;25.90;15.15;;;;;;;;;;5052295;28;20029;-68
2022/03/25 07:33:57;;;;;;;26.65;15.10;;;;;;;;;;5052324;28;20036;-68
2022/03/25 07:36:24;;;;;;;32.33;14.13;;;;;;;;;;5052250;28;20475;-68
2022/03/25 07:38:50;;;;;;;19.13;12.85;;;;;;;;;;5052461;28;20055;-68
2022/03/25 07:41:16;;;;;;;26.40;12.85;;;;;;;;;;5052191;28;20040;-68
2022/03/25 07:43:42;;;;;;;69.25;61.50;;;;;;;;;;5052126;28;20104;-68
2022/03/25 07:46:09;;;;;;;45.78;26.40;;;;;;;;;;5052312;28;20029;-68
2022/03/25 07:48:35;;;;;;;26.30;14.00;;;;;;;;;;5033940;28;20460;-67
2022/03/25 07:51:01;;;;;;;19.13;12.02;;;;;;;;;;5052167;28;20498;-68
2022/03/25 07:53:27;;;;;;;21.33;15.57;;;;;;;;;;5051956;28;20529;-68
2022/03/25 07:55:53;;;;;;;24.00;12.63;;;;;;;;;;5052122;28;20035;-68
2022/03/25 07:58:19;;;;;;;15.85;12.65;;;;;;;;;;5052082;28;20029;-68
2022/03/25 08:00:49;;;;;;;23.23;13.40;;;;;;;;;;5051965;28;20490;-68
2022/03/25 08:03:16;;;;;;;19.08;12.73;;;;;;;;;;5052094;28;20029;-68
2022/03/25 08:05:42;;;;;;;31.98;15.85;;;;;;;;;;5052379;28;20116;-68
2022/03/25 08:08:09;;;;;;;30.65;16.83;;;;;;;;;;5051760;28;20063;-68
2022/03/25 08:10:35;;;;;;;18.77;10.63;;;;;;;;;;5051948;28;20476;-67
2022/03/25 08:13:02;;;;;;;50.85;12.82;;;;;;;;;;5055813;28;20159;-68
2022/03/25 08:15:28;;;;;;;15.90;10.20;;;;;;;;;;5055419;28;20475;-68
2022/03/25 08:18:00;;;;;;;25.35;12.18;;;;;;;;;;5055414;28;20042;-68
2022/03/25 08:20:26;;;;;;;;;;;;;;;;;;5055895;28;20032;-67
2022/03/25 08:22:52;;;;;;;14.63;8.95;;;;;;;;;;5055294;28;19905;-68
2022/03/25 08:28:03;;;;;;;17.80;11.15;;;;;;;;;;5055529;28;20040;-67
2022/03/25 08:30:30;;;;;;;23.95;8.80;;;;;;;;;;5055216;28;20028;-67
2022/03/25 08:32:57;;;;;;;17.65;11.10;;;;;;;;;;5055023;28;20021;-67
2022/03/25 08:35:25;;;;;;;14.02;7.72;;;;;;;;;;5054846;28;20036;-68
2022/03/25 08:37:51;;;;;;;21.38;11.50;;;;;;;;;;5054930;28;20052;-67
2022/03/25 08:40:17;;;;;;;15.75;11.43;;;;;;;;;;5054937;28;20100;-68
2022/03/25 08:42:43;;;;;;;21.27;9.38;;;;;;;;;;5054939;28;20540;-68
2022/03/25 08:45:09;;;;;;;19.15;9.05;;;;;;;;;;5055012;28;20116;-67
2022/03/25 08:47:35;;;;;;;14.57;7.53;;;;;;;;;;5054957;28;20027;-67
2022/03/25 08:50:02;;;;;;;11.77;7.93;;;;;;;;;;5054705;28;20435;-68
2022/03/25 08:52:28;;;;;;;20.52;9.27;;;;;;;;;;5054880;28;20041;-67
2022/03/25 08:54:54;;;;;;;22.95;10.63;;;;;;;;;;5054733;28;20037;-67
2022/03/25 08:57:21;;;;;;;17.40;10.80;;;;;;;;;;5054668;28;20078;-67
2022/03/25 08:59:48;;;;;;;24.60;9.60;;;;;;;;;;5054607;28;20056;-67
2022/03/25 09:02:14;;;;;;;20.17;11.05;;;;;;;;;;5054605;28;20017;-67
2022/03/25 09:04:41;;;;;;;19.60;10.60;;;;;;;;;;5054539;28;20376;-67
2022/03/25 09:07:07;;;;;;;13.68;8.05;;;;;;;;;;5054641;28;20032;-67
2022/03/25 09:09:34;;;;;;;9.50;5.45;;;;;;;;;;5054668;28;20021;-67
2022/03/25 09:12:00;;;;;;;12.90;7.75;;;;;;;;;;5054489;28;20013;-67
2022/03/25 09:14:26;;;;;;;11.57;7.57;;;;;;;;;;5054378;28;20032;-67
2022/03/25 09:16:52;;;;;;;11.85;6.75;;;;;;;;;;5054763;28;20090;-65
2022/03/25 09:19:18;;;;;;;14.60;5.72;;;;;;;;;;5054281;28;20022;-66
2022/03/25 09:21:44;;;;;;;17.05;6.32;;;;;;;;;;5054095;28;20029;-67
2022/03/25 09:24:10;;;;;;;20.38;7.13;;;;;;;;;;5053608;28;20067;-66
2022/03/25 09:26:37;;;;;;;14.70;6.30;;;;;;;;;;5054018;28;20128;-66
2022/03/25 09:29:03;;;;;;;13.40;6.65;;;;;;;;;;5054107;28;20017;-67
2022/03/25 09:31:29;;;;;;;12.50;7.85;;;;;;;;;;5054054;28;20025;-67
2022/03/25 09:35:08;;;;;;;22.60;9.73;;;;;;;;;;5054021;28;20025;-66
2022/03/25 09:36:41;;;;;;;14.35;6.90;;;;;;;;;;5053716;28;20025;-67
2022/03/25 09:39:08;;;;;;;11.63;6.35;;;;;;;;;;5053710;28;20021;-66
2022/03/25 09:41:34;;;;;;;7.70;5.85;;;;;;;;;;5053806;28;20021;-67
2022/03/25 09:44:00;;;;;;;12.70;6.70;;;;;;;;;;5053803;28;20556;-67
2022/03/25 09:46:26;;;;;;;12.50;7.05;;;;;;;;;;5053586;28;20395;-67
2022/03/25 09:48:52;;;;;;;20.45;9.55;;;;;;;;;;5053655;28;20104;-68
2022/03/25 09:51:20;;;;;;;12.80;6.20;;;;;;;;;;5053576;28;20049;-68
2022/03/25 09:53:46;;;;;;;13.10;6.90;;;;;;;;;;5053580;28;20021;-68
2022/03/25 09:56:12;;;;;;;8.75;6.68;;;;;;;;;;5053500;28;20033;-69
2022/03/25 09:58:38;;;;;;;17.95;7.00;;;922.10;435.20;;;;;;5053601;28;20460;-69
2022/03/25 10:01:04;;;;;;;42.72;11.10;;;;;;;;;;5053403;28;20063;-68
2022/03/25 10:03:40;;;;;;;18.67;8.30;;;998.50;435.20;;;;;;5053133;28;20021;-68
2022/03/25 10:06:12;;;;;;;19.23;8.10;;;;;;;;;;5053231;28;20020;-69
2022/03/25 10:08:39;;;;;;;8.23;7.38;;;;;;;;;;5053368;28;20479;-68
2022/03/25 10:11:41;;;;;;;12.32;7.43;;;;;;;;;;5053351;28;20029;-69
2022/03/25 10:14:14;;;;;;;15.35;7.68;;;;;;;;;;5030975;28;20036;-68
2022/03/25 10:16:41;;;;;;;29.70;8.23;;;;;;;;;;5030953;28;20046;-68
2022/03/25 10:19:09;;;;;;;11.52;6.40;;;;;;;;;;5014563;28;20025;-68
2022/03/25 10:21:54;;;;;;;9.00;6.57;;;;;;;;;;5031080;28;20480;-68
2022/03/25 10:24:40;;;;;;;18.58;13.32;;;;;;;;;;5030961;28;20034;-68
2022/03/25 10:27:07;;;;;;;21.88;7.40;;;1050.40;358.40;;;;;;5030837;28;20080;-68
2022/03/25 10:29:35;;;;;;;18.38;8.30;;;;;;;;;;5014416;28;20044;-68
2022/03/25 10:32:27;;;;;;;10.77;6.40;;;;;;;;;;5030925;28;20023;-68
2022/03/25 10:35:03;;;;;;;13.90;8.32;;;1075.90;358.40;;;;;;5028151;28;20172;-68
2022/03/25 10:37:29;;;;;;;19.45;7.53;;;;;;;;;;5030921;28;20061;-68
2022/03/25 10:39:55;;;;;;;12.70;6.50;;;1075.40;384.00;;;;;;5031038;28;20029;-68
2022/03/25 10:42:20;;;;;;;15.38;7.88;;;1075.60;384.00;;;;;;5030883;28;20034;-69
2022/03/25 10:44:47;;;;;;;21.08;8.05;;;;;;;;;;5030598;28;20021;-69
2022/03/25 10:47:15;;;;;;;10.13;7.60;;;1075.30;409.60;;;;;;5033821;28;20048;-69
2022/03/25 10:49:46;;;;;;;28.38;10.45;;;;;;;;;;5052658;28;20075;-69
2022/03/25 10:52:22;;;;;;;20.52;8.85;;;;;;;;;;5035108;28;20055;-69
2022/03/25 10:54:48;;;;;;;12.45;8.27;;;;;;;;;;5052576;28;20061;-69
2022/03/25 10:57:16;;;;;;;14.88;9.38;;;;;;;;;;5052965;28;20064;-68
2022/03/25 10:59:42;;;;;;;25.10;11.40;;;1101.20;384.00;;;;;;5034708;28;20047;-69
2022/03/25 11:02:09;;;;;;;35.40;24.10;;;;;;;;;;5052831;28;20444;-68
2022/03/25 11:04:35;;;;;;;14.75;9.65;;;;;;;;;;5052333;28;20107;-68
2022/03/25 11:07:02;;;;;;;13.70;8.38;;;;;;;;;;5052210;28;20063;-68
2022/03/25 11:09:28;;;;;;;24.25;12.52;;;;;;;;;;5052462;28;20028;-69
2022/03/25 11:11:55;;;;;;;20.10;10.25;;;1101.10;384.00;;;;;;5052387;28;20036;-68
2022/03/25 11:14:22;;;;;;;21.08;9.73;;;;;;;;;;5052411;28;20487;-68
2022/03/25 11:16:55;;;;;;;18.30;10.45;;;;;;;;;;5052712;28;20025;-68
2022/03/25 11:19:22;;;;;;;25.77;9.48;;;1075.90;358.40;;;;;;5052272;28;20029;-70
2022/03/25 11:21:49;;;;;;;13.20;9.35;;;;;;;;;;5052205;28;20017;-68
2022/03/25 11:24:24;;;;;;;40.33;14.73;;;;;;;;;;5052532;28;20025;-69
2022/03/25 11:26:53;;;;;;;13.02;9.15;;;1050.40;409.60;;;;;;5052002;28;20053;-69
2022/03/25 11:29:22;;;;;;;19.08;8.07;;;;;;;;;;5052110;28;20025;-69
2022/03/25 11:32:05;;;;;;;17.83;10.70;;;1049.60;435.20;;;;;;5051814;28;20383;-69
2022/03/25 11:34:31;;;;;;;12.25;9.52;;;;;;;;;;5033853;28;20029;-69
2022/03/25 11:37:16;;;;;;;29.88;11.65;;;;;;;;;;5052387;28;20025;-69
2022/03/25 11:39:42;;;;;;;20.02;9.20;;;;;;;;;;5052170;28;20025;-68
2022/03/25 11:42:28;;;;;;;17.70;10.57;;;;;;;;;;5052265;28;20029;-68
2022/03/25 11:45:14;;;;;;;17.98;12.23;;;;;;;;;;5051924;28;20032;-69
2022/03/25 11:47:40;;;;;;;16.90;13.93;;;;;;;;;;5055513;28;20115;-69
2022/03/25 11:50:24;;;;;;;20.50;12.13;;;973.00;435.20;;;;;;5055953;28;20475;-69
2022/03/25 11:52:50;;;;;;;22.85;12.05;;;948.10;409.60;;;;;;5055677;28;20398;-69
2022/03/25 11:55:17;;;;;;;37.22;14.13;;;;;;;;;;5055725;28;20029;-69
2022/03/25 11:57:44;;;;;;;21.73;10.73;;;;;;;;;;5055751;28;20033;-69
2022/03/25 12:00:21;;;;;;;22.25;13.75;;;;;;;;;;5055688;28;20497;-69
2022/03/25 12:03:00;;;;;;;27.30;14.18;;;922.00;460.80;;;;;;5055448;28;20021;-68
2022/03/25 12:05:26;;;;;;;16.45;9.68;;;922.00;460.80;;;;;;5055881;28;20025;-68
2022/03/25 12:08:12;;;;;;;17.38;10.52;;;;;;;;;;5055420;28;20047;-69
2022/03/25 12:10:45;;;;;;;16.65;10.52;;;;;;;;;;5055711;28;20025;-69
2022/03/25 12:13:11;;;;;;;26.35;13.77;;;896.50;460.80;;;;;;5055254;28;20021;-69
2022/03/25 12:15:47;;;;;;;23.58;14.57;;;;;;;;;;5055452;28;20040;-69
2022/03/25 12:18:34;;;;;;;16.80;10.27;;;;;;;;;;5055201;28;20856;-69
2022/03/25 12:20:59;;;;;;;17.10;11.02;;;870.90;486.40;;;;;;5047772;28;20048;-68
2022/03/25 12:23:26;;;;;;;18.90;11.70;;;;;;;;;;5055150;28;20025;-68
2022/03/25 12:25:52;;;;;;;22.38;11.02;;;;;;;;;;5054936;28;20052;-68
2022/03/25 12:28:25;;;;;;;26.85;13.00;;;;;;;;;;5055110;28;20025;-68
2022/03/25 12:30:52;;;;;;;22.38;12.02;;;;;;;;;;5055110;28;20036;-68
2022/03/25 12:33:19;;;;;;;22.45;11.63;;;;;;;;;;5055162;28;20029;-68
2022/03/25 12:35:45;;;;;;;16.98;10.27;;;;;;;;;;5055015;28;20032;-70
2022/03/25 12:38:19;;;;;;;17.67;9.75;;;;;;;;;;5055020;28;20051;-70
2022/03/25 12:40:46;;;;;;;15.52;10.00;;;;;;;;;;5055037;28;20028;-70
2022/03/25 12:43:12;;;;;;;26.60;14.85;;;;;;;;;;5054689;28;20028;-70
2022/03/25 12:45:39;;;;;;;24.02;12.23;;;;;;;;;;5054692;28;20036;-70
2022/03/25 12:48:19;;;;;;;24.52;13.07;;;;;;;;;;5054758;28;20029;-70
2022/03/25 12:50:46;;;;;;;16.95;11.50;;;;;;;;;;5054796;28;20025;-70
2022/03/25 12:53:13;;;;;;;23.35;10.50;;;;;;;;;;5054707;28;20060;-70
2022/03/25 12:55:39;;;;;;;20.15;10.07;;;;;;;;;;5054492;28;20029;-68
2022/03/25 12:58:07;;;;;;;24.85;15.95;;;;;;;;;;5053279;28;20071;-68
2022/03/25 13:00:38;;;;;;;26.33;14.05;;;;;;;;;;5054932;28;20051;-67
2022/03/25 13:03:04;;;;;;;18.90;14.02;;;;;;;;;;5054279;28;20111;-67
2022/03/25 13:05:31;;;;;;;17.88;14.27;;;743.10;588.80;;;;;;5054197;28;20033;-68
2022/03/25 13:07:57;;;;;;;24.75;14.43;;;;;;;;;;5054272;28;20088;-68
2022/03/25 13:10:24;;;;;;;25.35;14.38;;;;;;;;;;5054354;28;20021;-68
2022/03/25 13:12:53;;;;;;;27.17;11.60;;;;;;;;;;5054206;28;20033;-68
2022/03/25 13:15:25;;;;;;;16.20;11.93;;;;;;;;;;5054282;28;20037;-68
2022/03/25 13:17:53;;;;;;;23.15;11.80;;;692.10;588.80;;;;;;5054381;28;20029;-68
2022/03/25 13:20:30;;;;;;;16.50;11.55;;;;;;;;;;5054448;28;20063;-68
2022/03/25 13:23:01;;;;;;;24.40;10.82;;;;;;;;;;5054185;28;20438;-68
2022/03/25 13:25:36;;;;;;;23.92;11.68;;;;;;;;;;5054077;28;20053;-68
2022/03/25 13:28:03;;;;;;;17.67;10.70;;;;;;;;;;5054101;28;20025;-68
2022/03/25 13:30:30;;;;;;;23.42;11.75;;;;;;;;;;5054174;28;20029;-67
2022/03/25 13:33:04;;;;;;;25.08;12.15;;;;;;;;;;5053806;28;20033;-68
2022/03/25 13:35:31;;;;;;;22.23;12.38;;;;;;;;;;5053897;28;20033;-67
2022/03/25 13:37:58;;;;;;;27.98;13.88;;;;;;;;;;5053617;28;20055;-68
2022/03/25 13:40:54;;;;;;;20.67;12.13;;;;;;;;;;5053650;28;20021;-67
2022/03/25 13:43:23;;;;;;;23.50;13.27;;;;;;;;;;5012041;28;20042;-67
2022/03/25 13:46:09;;;;;;;22.00;11.32;;;;;;;;;;5011797;28;20034;-67
2022/03/25 13:48:43;;;;;;;15.05;10.43;;;;;;;;;;5011880;28;20042;-67
2022/03/25 13:51:21;;;;;;;17.95;10.88;;;;;;;;;;5011955;28;20022;-67
2022/03/25 13:53:47;;;;;;;19.60;10.45;;;;;;;;;;5011686;28;20034;-67